Time;durP1;ratioP1;P1;durP2;ratioP2;P2;SDS_P1;SDS_P2;PMS_P1;PMS_P2;Temp;Humidity;BMP_temperature;BMP_pressure;BME280_temperature;BME280_humidity;BME280_pressure;Samples;Min_cycle;Max_cycle;Signal;HPM_P1;HPM_P2
2021/10/23 00:01:06;;;;;;;69.43;48.97;;;15.30;82.40;;;;;;5031831;28;20025;-71
2021/10/23 00:03:31;;;;;;;67.72;48.63;;;15.40;82.50;;;;;;5043487;28;20057;-71
2021/10/23 00:05:57;;;;;;;71.50;46.90;;;15.30;82.20;;;;;;5033543;28;20025;-71
2021/10/23 00:08:23;;;;;;;66.70;46.72;;;15.20;83.00;;;;;;5032559;28;20056;-71
2021/10/23 00:10:48;;;;;;;62.97;46.03;;;15.30;82.50;;;;;;5031868;28;20036;-71
2021/10/23 00:13:14;;;;;;;69.32;48.30;;;15.20;82.70;;;;;;5047784;28;20029;-71
2021/10/23 00:15:40;;;;;;;71.78;50.05;;;15.20;82.90;;;;;;5053368;28;20025;-71
2021/10/23 00:18:05;;;;;;;66.88;47.03;;;15.20;83.50;;;;;;5051038;28;20475;-71
2021/10/23 00:20:31;;;;;;;62.45;47.00;;;15.20;83.60;;;;;;5028575;28;20022;-71
2021/10/23 00:22:57;;;;;;;63.45;47.13;;;15.20;84.10;;;;;;5038523;28;20032;-71
2021/10/23 00:25:23;;;;;;;72.75;50.03;;;15.20;84.10;;;;;;5053291;28;20531;-71
2021/10/23 00:27:48;;;;;;;68.80;50.00;;;15.30;83.90;;;;;;5040366;28;20052;-71
2021/10/23 00:30:16;;;;;;;68.18;48.60;;;15.30;83.80;;;;;;5033136;28;20025;-71
2021/10/23 00:32:42;;;;;;;70.38;49.05;;;15.20;83.80;;;;;;5041990;28;20024;-71
2021/10/23 00:35:08;;;;;;;71.75;49.88;;;15.20;84.00;;;;;;5038443;28;20395;-71
2021/10/23 00:37:34;;;;;;;69.78;47.92;;;15.20;83.70;;;;;;5032164;28;20029;-71
2021/10/23 00:40:00;;;;;;;68.10;46.35;;;15.20;83.80;;;;;;5031647;28;20029;-71
2021/10/23 00:42:25;;;;;;;64.07;47.03;;;15.20;83.70;;;;;;5030820;28;20057;-71
2021/10/23 00:44:51;;;;;;;67.60;47.72;;;15.20;83.60;;;;;;5031517;28;20394;-71
2021/10/23 00:47:19;;;;;;;65.47;46.15;;;15.10;83.80;;;;;;5030146;28;20506;-71
2021/10/23 00:49:47;;;;;;;64.22;47.22;;;15.10;83.80;;;;;;5023115;28;20474;-71
2021/10/23 00:52:12;;;;;;;64.70;45.22;;;15.10;84.50;;;;;;5018112;28;20041;-71
2021/10/23 00:54:39;;;;;;;69.93;48.28;;;15.10;86.40;;;;;;5032780;28;20091;-71
2021/10/23 00:57:06;;;;;;;66.45;48.25;;;15.10;89.00;;;;;;5031209;28;20076;-71
2021/10/23 00:59:32;;;;;;;69.50;47.70;;;15.20;91.70;;;;;;5032883;28;20029;-71
2021/10/23 01:01:58;;;;;;;69.25;48.45;;;15.20;88.70;;;;;;5034317;28;20049;-71
2021/10/23 01:04:25;;;;;;;72.78;48.78;;;15.20;88.30;;;;;;5042050;28;20116;-71
2021/10/23 01:06:51;;;;;;;66.43;46.85;;;15.30;87.50;;;;;;5050798;28;20071;-71
2021/10/23 01:09:17;;;;;;;68.85;48.63;;;15.20;87.30;;;;;;5052727;28;20026;-71
2021/10/23 01:11:44;;;;;;;75.55;49.10;;;15.20;87.20;;;;;;5050576;28;20055;-70
2021/10/23 01:14:20;;;;;;;68.28;49.67;;;15.10;86.50;;;;;;5032408;28;20525;-71
2021/10/23 01:16:48;;;;;;;64.72;49.20;;;15.10;86.20;;;;;;5030999;28;20056;-71
2021/10/23 01:19:14;;;;;;;69.50;47.47;;;15.20;85.60;;;;;;5032617;28;20075;-71
2021/10/23 01:21:40;;;;;;;67.78;46.83;;;15.10;85.00;;;;;;5031808;28;20036;-71
2021/10/23 01:24:08;;;;;;;63.63;46.70;;;15.20;84.60;;;;;;5042907;28;20079;-71
2021/10/23 01:26:37;;;;;;;67.50;47.38;;;15.20;84.50;;;;;;5032646;28;20479;-71
2021/10/23 01:29:05;;;;;;;64.75;47.10;;;15.30;84.40;;;;;;5032211;28;20017;-71
2021/10/23 01:31:31;;;;;;;68.38;48.08;;;15.30;84.00;;;;;;5032827;28;20030;-71
2021/10/23 01:33:58;;;;;;;62.92;46.08;;;15.30;83.70;;;;;;5044235;28;20398;-70
2021/10/23 01:36:24;;;;;;;67.03;46.53;;;15.40;83.50;;;;;;5044083;28;20138;-71
2021/10/23 01:38:50;;;;;;;67.05;47.50;;;15.30;83.10;;;;;;5033922;28;20053;-71
2021/10/23 01:41:16;;;;;;;68.38;47.00;;;15.30;83.90;;;;;;5032790;28;20048;-71
2021/10/23 01:43:42;;;;;;;65.28;46.47;;;15.40;83.00;;;;;;5047182;28;20029;-71
2021/10/23 01:46:08;;;;;;;64.85;45.38;;;15.40;83.00;;;;;;5032705;28;20091;-71
2021/10/23 01:48:35;;;;;;;63.15;45.92;;;15.40;83.00;;;;;;5031206;28;20030;-71
2021/10/23 01:51:02;;;;;;;66.00;46.72;;;15.30;83.10;;;;;;5032600;28;20030;-70
2021/10/23 01:53:28;;;;;;;64.90;47.38;;;15.30;83.10;;;;;;5030327;28;20033;-71
2021/10/23 01:55:53;;;;;;;67.82;47.88;;;15.30;82.90;;;;;;5031448;28;20072;-71
2021/10/23 01:58:20;;;;;;;67.72;48.78;;;15.20;83.50;;;;;;5030417;28;20387;-70
2021/10/23 02:00:46;;;;;;;69.97;48.70;;;15.20;83.60;;;;;;5034505;28;20105;-71
2021/10/23 02:03:12;;;;;;;63.65;46.15;;;15.30;83.50;;;;;;5043270;28;20079;-70
2021/10/23 02:05:38;;;;;;;63.08;45.72;;;15.20;83.80;;;;;;5055397;28;20474;-71
2021/10/23 02:08:04;;;;;;;64.53;46.00;;;15.20;83.80;;;;;;5051135;28;20068;-70
2021/10/23 02:10:32;;;;;;;70.10;47.60;;;15.20;83.80;;;;;;5055579;28;20036;-71
2021/10/23 02:12:57;;;;;;;63.75;46.78;;;15.20;83.50;;;;;;5053387;28;20021;-71
2021/10/23 02:15:23;;;;;;;64.65;46.13;;;15.20;83.30;;;;;;5055553;28;20490;-71
2021/10/23 02:17:49;;;;;;;66.50;45.85;;;15.30;83.40;;;;;;5046460;28;20112;-71
2021/10/23 02:20:14;;;;;;;67.85;47.95;;;15.30;83.20;;;;;;5035217;28;20052;-71
2021/10/23 02:22:41;;;;;;;65.80;47.03;;;15.30;83.10;;;;;;5038985;28;20025;-71
2021/10/23 02:25:09;;;;;;;65.60;47.53;;;15.30;82.90;;;;;;5020666;28;20033;-71
2021/10/23 02:27:35;;;;;;;76.93;52.75;;;15.40;82.60;;;;;;5035274;28;20119;-71
2021/10/23 02:30:00;;;;;;;75.57;50.72;;;15.30;83.00;;;;;;5026520;28;20100;-71
2021/10/23 02:32:26;;;;;;;77.97;53.88;;;15.30;83.10;;;;;;5037032;28;20036;-71
2021/10/23 02:34:52;;;;;;;79.57;53.10;;;15.40;83.10;;;;;;5033619;28;20056;-71
2021/10/23 02:37:18;;;;;;;79.85;53.90;;;15.40;83.40;;;;;;5034164;28;20039;-71
2021/10/23 02:39:43;;;;;;;71.50;50.60;;;15.40;83.60;;;;;;5035083;28;20453;-71
2021/10/23 02:42:09;;;;;;;71.60;50.50;;;15.30;83.90;;;;;;5033989;28;20029;-71
2021/10/23 02:44:35;;;;;;;73.35;52.03;;;15.40;83.70;;;;;;5035006;28;20039;-71
2021/10/23 02:47:01;;;;;;;72.50;48.78;;;15.40;83.30;;;;;;5033516;28;20121;-71
2021/10/23 02:49:27;;;;;;;70.90;49.05;;;15.40;83.00;;;;;;5033916;28;20033;-71
2021/10/23 02:51:53;;;;;;;72.57;49.92;;;15.40;83.30;;;;;;5032602;28;20508;-71
2021/10/23 02:54:18;;;;;;;66.10;47.15;;;15.50;83.10;;;;;;5033854;28;20076;-71
2021/10/23 02:56:44;;;;;;;69.70;48.00;;;15.50;82.70;;;;;;5034732;28;20057;-71
2021/10/23 02:59:10;;;;;;;74.72;50.20;;;15.50;82.70;;;;;;5049967;28;20075;-71
2021/10/23 03:01:36;;;;;;;77.32;50.40;;;15.50;82.70;;;;;;5032887;28;20483;-70
2021/10/23 03:04:02;;;;;;;75.70;51.05;;;15.50;82.50;;;;;;5044831;28;20115;-71
2021/10/23 03:06:27;;;;;;;71.03;48.80;;;15.50;82.60;;;;;;5054339;28;20036;-71
2021/10/23 03:08:53;;;;;;;66.47;47.13;;;15.50;82.50;;;;;;5038596;28;20083;-71
2021/10/23 03:11:19;;;;;;;60.67;44.42;;;15.40;81.90;;;;;;5032543;28;20033;-71
2021/10/23 03:13:44;;;;;;;61.67;47.00;;;15.30;83.00;;;;;;5044541;28;20390;-71
2021/10/23 03:16:10;;;;;;;61.88;43.33;;;15.40;82.70;;;;;;5052439;28;20075;-71
2021/10/23 03:18:36;;;;;;;61.40;43.53;;;15.40;82.10;;;;;;5036450;28;20064;-70
2021/10/23 03:21:02;;;;;;;55.63;41.47;;;15.40;81.60;;;;;;5052781;28;20033;-70
2021/10/23 03:23:28;;;;;;;54.28;40.00;;;15.50;81.60;;;;;;5040094;28;20036;-70
2021/10/23 03:26:22;;;;;;;56.60;41.05;;;15.60;81.00;;;;;;5033961;28;20033;-70
2021/10/23 03:28:47;;;;;;;51.25;37.05;;;15.60;80.60;;;;;;5020033;28;20034;-70
2021/10/23 03:31:13;;;;;;;50.88;35.70;;;15.60;79.70;;;;;;5014086;28;20053;-70
2021/10/23 03:33:38;;;;;;;41.85;31.08;;;15.60;79.40;;;;;;5027300;28;20147;-70
2021/10/23 03:36:05;;;;;;;41.88;31.67;;;15.70;78.80;;;;;;5053579;28;20049;-70
2021/10/23 03:38:31;;;;;;;42.05;29.67;;;15.70;78.10;;;;;;5051804;28;20029;-70
2021/10/23 03:40:57;;;;;;;35.97;26.95;;;15.70;77.40;;;;;;5053600;28;20040;-70
2021/10/23 03:43:23;;;;;;;34.67;25.27;;;15.60;76.90;;;;;;5042327;28;20037;-70
2021/10/23 03:45:49;;;;;;;35.28;25.70;;;15.50;76.30;;;;;;5033496;28;20216;-70
2021/10/23 03:48:14;;;;;;;37.05;25.88;;;15.50;76.10;;;;;;5039589;28;20035;-70
2021/10/23 03:50:40;;;;;;;34.30;25.17;;;15.40;75.70;;;;;;5053569;28;20425;-70
2021/10/23 03:53:05;;;;;;;31.10;24.25;;;15.50;75.60;;;;;;5043879;28;20135;-70
2021/10/23 03:55:31;;;;;;;32.95;23.77;;;15.40;75.20;;;;;;5032250;28;20120;-70
2021/10/23 03:57:57;;;;;;;28.30;22.98;;;15.50;75.60;;;;;;5032657;28;20525;-71
2021/10/23 04:00:22;;;;;;;32.38;24.38;;;15.50;74.70;;;;;;5030857;28;20033;-70
2021/10/23 04:02:48;;;;;;;31.80;22.45;;;15.50;74.60;;;;;;5044278;28;20104;-70
2021/10/23 04:05:14;;;;;;;32.88;24.25;;;15.50;74.30;;;;;;5032131;28;20100;-71
2021/10/23 04:07:39;;;;;;;32.17;25.10;;;15.50;74.10;;;;;;5043307;28;20049;-70
2021/10/23 04:10:06;;;;;;;43.10;30.95;;;15.50;74.00;;;;;;5053152;28;20033;-71
2021/10/23 04:12:32;;;;;;;48.33;33.30;;;15.20;74.70;;;;;;5041438;28;20029;-71
2021/10/23 04:15:00;;;;;;;43.35;31.83;;;15.30;75.50;;;;;;5033345;28;20431;-70
2021/10/23 04:17:28;;;;;;;44.20;31.70;;;15.20;75.80;;;;;;5030603;28;20430;-70
2021/10/23 04:19:54;;;;;;;46.67;33.58;;;15.30;76.00;;;;;;5032778;28;20021;-70
2021/10/23 04:22:20;;;;;;;52.22;37.58;;;15.40;76.10;;;;;;5032130;28;20032;-70
2021/10/23 04:24:47;;;;;;;58.30;39.10;;;15.40;76.30;;;;;;5033005;28;20030;-70
2021/10/23 04:27:12;;;;;;;53.25;36.97;;;15.30;76.80;;;;;;5031465;28;20385;-70
2021/10/23 04:29:38;;;;;;;56.28;37.38;;;15.30;77.60;;;;;;5032547;28;20105;-71
2021/10/23 04:32:04;;;;;;;59.63;38.45;;;15.30;77.20;;;;;;5034106;28;20104;-70
2021/10/23 04:34:30;;;;;;;59.72;40.10;;;15.20;77.40;;;;;;5052392;28;20076;-70
2021/10/23 04:36:56;;;;;;;60.50;37.55;;;15.30;77.80;;;;;;5050865;28;20029;-70
2021/10/23 04:39:22;;;;;;;59.83;39.13;;;15.30;77.80;;;;;;5042352;28;20033;-70
2021/10/23 04:41:47;;;;;;;60.67;41.20;;;15.30;77.70;;;;;;5031559;28;20039;-70
2021/10/23 04:44:13;;;;;;;55.17;39.30;;;15.30;78.30;;;;;;5032715;28;20361;-71
2021/10/23 04:46:38;;;;;;;57.92;38.15;;;15.30;78.30;;;;;;5031532;28;20041;-70
2021/10/23 04:49:04;;;;;;;56.42;38.97;;;15.20;78.70;;;;;;5045377;28;20037;-70
2021/10/23 04:51:30;;;;;;;61.33;38.88;;;15.30;78.50;;;;;;5032209;28;20026;-70
2021/10/23 04:53:55;;;;;;;56.15;38.78;;;15.30;78.40;;;;;;5032278;28;20045;-70
2021/10/23 04:56:21;;;;;;;57.60;39.08;;;15.30;78.40;;;;;;5032870;28;20029;-70
2021/10/23 04:58:47;;;;;;;50.75;34.47;;;15.30;78.50;;;;;;5048134;28;20599;-71
2021/10/23 05:01:13;;;;;;;54.50;35.38;;;15.30;78.30;;;;;;5032493;28;20479;-71
2021/10/23 05:03:39;;;;;;;50.95;35.90;;;15.30;78.20;;;;;;5031601;28;20037;-71
2021/10/23 05:06:04;;;;;;;47.63;33.65;;;15.40;77.70;;;;;;5032803;28;20025;-71
2021/10/23 05:08:30;;;;;;;40.67;30.83;;;15.30;77.50;;;;;;5046220;28;20386;-71
2021/10/23 05:10:55;;;;;;;44.33;31.48;;;15.30;77.10;;;;;;5036133;28;20471;-70
2021/10/23 05:13:21;;;;;;;43.95;29.58;;;15.30;77.30;;;;;;5031452;28;20068;-71
2021/10/23 05:15:47;;;;;;;47.03;31.42;;;15.30;76.70;;;;;;5031601;28;20037;-71
2021/10/23 05:18:13;;;;;;;41.38;30.67;;;15.30;76.90;;;;;;5023645;28;20030;-70
2021/10/23 05:20:38;;;;;;;40.70;30.25;;;15.30;76.30;;;;;;5012708;28;20069;-71
2021/10/23 05:23:04;;;;;;;43.97;30.33;;;15.30;76.10;;;;;;5024861;28;20029;-70
2021/10/23 05:25:30;;;;;;;44.15;31.02;;;15.30;76.10;;;;;;5032345;28;20029;-70
2021/10/23 05:27:56;;;;;;;38.05;27.85;;;15.20;76.00;;;;;;5023424;28;20045;-70
2021/10/23 05:30:21;;;;;;;41.53;27.48;;;15.20;75.50;;;;;;5032233;28;20021;-70
2021/10/23 05:32:47;;;;;;;37.78;26.70;;;15.20;76.00;;;;;;5037501;28;20063;-70
2021/10/23 05:35:12;;;;;;;34.78;25.17;;;15.20;75.50;;;;;;5034699;28;20052;-70
2021/10/23 05:37:38;;;;;;;38.00;25.05;;;15.10;76.00;;;;;;5041500;28;20029;-70
2021/10/23 05:40:05;;;;;;;34.55;25.38;;;15.10;76.00;;;;;;5054984;28;20057;-70
2021/10/23 05:42:30;;;;;;;38.92;25.77;;;15.10;75.80;;;;;;5047426;28;20108;-70
2021/10/23 05:44:56;;;;;;;35.88;24.15;;;15.20;75.80;;;;;;5035956;28;20117;-70
2021/10/23 05:47:21;;;;;;;35.53;24.83;;;15.10;75.80;;;;;;5039354;28;20086;-70
2021/10/23 05:49:47;;;;;;;30.45;22.15;;;15.20;75.20;;;;;;5055910;28;20025;-70
2021/10/23 05:52:13;;;;;;;31.10;21.48;;;15.20;74.70;;;;;;5050194;28;20097;-70
2021/10/23 05:54:39;;;;;;;26.15;19.10;;;15.20;74.10;;;;;;5034683;28;20033;-70
2021/10/23 05:57:06;;;;;;;27.30;19.63;;;15.20;73.60;;;;;;5034402;28;20041;-70
2021/10/23 05:59:32;;;;;;;27.65;18.75;;;15.10;73.60;;;;;;5037174;28;20159;-70
2021/10/23 06:02:08;;;;;;;26.35;19.67;;;15.10;73.50;;;;;;5049605;28;20100;-70
2021/10/23 06:04:36;;;;;;;23.25;17.83;;;15.10;73.10;;;;;;5035613;28;20491;-70
2021/10/23 06:07:03;;;;;;;25.80;18.88;;;15.10;72.40;;;;;;5034513;28;20029;-71
2021/10/23 06:09:30;;;;;;;26.48;18.40;;;15.10;72.30;;;;;;5035500;28;20168;-71
2021/10/23 06:12:01;;;;;;;23.30;16.77;;;15.10;71.70;;;;;;5027705;28;20368;-71
2021/10/23 06:14:27;;;;;;;28.02;18.55;;;15.00;71.80;;;;;;5032773;28;20065;-71
2021/10/23 06:16:52;;;;;;;23.52;16.38;;;15.00;72.20;;;;;;5033547;28;20040;-71
2021/10/23 06:19:18;;;;;;;25.15;17.33;;;15.10;71.60;;;;;;5053118;28;20037;-71
2021/10/23 06:21:44;;;;;;;28.60;17.77;;;15.10;71.20;;;;;;5055557;28;20025;-71
2021/10/23 06:24:09;;;;;;;24.67;17.67;;;15.10;71.30;;;;;;5053134;28;20021;-71
2021/10/23 06:26:35;;;;;;;28.65;18.00;;;15.10;71.30;;;;;;5042067;28;20483;-71
2021/10/23 06:29:00;;;;;;;26.80;19.33;;;15.10;71.50;;;;;;5032752;28;20109;-71
2021/10/23 06:31:26;;;;;;;28.13;19.73;;;15.20;70.90;;;;;;5035174;28;20029;-71
2021/10/23 06:33:52;;;;;;;28.08;20.23;;;15.20;71.10;;;;;;5033824;28;20383;-70
2021/10/23 06:36:17;;;;;;;30.35;20.17;;;15.10;70.90;;;;;;5035080;28;20453;-71
2021/10/23 06:38:43;;;;;;;32.17;20.80;;;15.20;70.90;;;;;;5033174;28;20035;-70
2021/10/23 06:41:09;;;;;;;28.77;20.38;;;15.20;70.70;;;;;;5033279;28;20056;-70
2021/10/23 06:43:34;;;;;;;26.88;20.95;;;15.20;70.40;;;;;;5032711;28;20057;-70
2021/10/23 06:46:00;;;;;;;31.83;21.63;;;15.20;70.30;;;;;;5033285;28;20033;-70
2021/10/23 06:48:25;;;;;;;27.35;21.30;;;15.20;70.50;;;;;;5044006;28;20059;-70
2021/10/23 06:50:51;;;;;;;28.27;20.13;;;15.20;70.70;;;;;;5042581;28;20403;-71
2021/10/23 06:53:17;;;;;;;33.63;21.13;;;15.30;70.60;;;;;;5032161;28;20127;-70
2021/10/23 06:55:43;;;;;;;26.55;18.95;;;15.20;71.00;;;;;;5034442;28;20090;-70
2021/10/23 06:58:08;;;;;;;27.48;19.25;;;15.20;70.60;;;;;;5032242;28;20021;-70
2021/10/23 07:00:34;;;;;;;27.90;19.27;;;15.20;70.70;;;;;;5044548;28;20033;-72
2021/10/23 07:03:00;;;;;;;27.77;18.23;;;15.30;69.70;;;;;;5040017;28;20017;-70
2021/10/23 07:05:27;;;;;;;31.27;19.70;;;15.30;70.30;;;;;;5054464;28;20040;-70
2021/10/23 07:07:52;;;;;;;25.95;18.92;;;15.30;70.30;;;;;;5047348;28;20088;-70
2021/10/23 07:10:23;;;;;;;25.63;19.25;;;15.30;69.50;;;;;;5034345;28;20471;-70
2021/10/23 07:12:50;;;;;;;31.27;20.85;;;15.30;69.10;;;;;;5033936;28;20057;-69
2021/10/23 07:15:16;;;;;;;27.40;19.80;;;15.30;69.70;;;;;;5050432;28;20049;-70
2021/10/23 07:17:42;;;;;;;29.83;20.58;;;15.40;69.40;;;;;;5041589;28;20021;-70
2021/10/23 07:20:09;;;;;;;32.15;21.40;;;15.40;68.80;;;;;;5034131;28;20127;-71
2021/10/23 07:22:35;;;;;;;27.85;20.17;;;15.40;68.60;;;;;;5032594;28;20029;-71
2021/10/23 07:25:01;;;;;;;30.80;20.95;;;15.40;68.60;;;;;;5033920;28;20029;-71
2021/10/23 07:27:27;;;;;;;30.48;20.95;;;15.50;68.40;;;;;;5016282;28;20037;-71
2021/10/23 07:29:52;;;;;;;28.23;20.27;;;15.50;68.30;;;;;;5053888;28;20021;-71
2021/10/23 07:32:19;;;;;;;30.08;21.95;;;15.70;67.60;;;;;;5021263;28;20108;-71
2021/10/23 07:34:44;;;;;;;30.38;20.98;;;15.80;67.40;;;;;;5033515;28;20427;-71
2021/10/23 07:37:10;;;;;;;29.40;22.10;;;15.90;66.70;;;;;;5033600;28;20081;-72
2021/10/23 07:39:36;;;;;;;29.33;22.08;;;15.90;65.90;;;;;;5033085;28;20061;-72
2021/10/23 07:42:03;;;;;;;32.67;21.98;;;15.90;66.20;;;;;;5033938;28;20419;-71
2021/10/23 07:44:28;;;;;;;29.33;21.35;;;16.00;66.20;;;;;;5050156;28;20108;-71
2021/10/23 07:46:54;;;;;;;31.83;21.05;;;16.10;66.20;;;;;;5052159;28;20126;-72
2021/10/23 07:49:20;;;;;;;29.75;20.80;;;16.10;65.60;;;;;;5036021;28;20041;-71
2021/10/23 07:51:45;;;;;;;29.83;21.73;;;16.10;65.20;;;;;;5033289;28;20083;-71
2021/10/23 07:54:11;;;;;;;32.08;22.23;;;16.10;64.90;;;;;;5033768;28;20041;-71
2021/10/23 07:56:39;;;;;;;31.98;23.23;;;16.20;64.20;;;;;;5049756;28;20039;-71
2021/10/23 07:59:04;;;;;;;33.47;21.70;;;16.10;63.30;;;;;;5037926;28;20033;-71
2021/10/23 08:01:30;;;;;;;34.20;23.70;;;16.10;64.70;;;;;;5032341;28;20458;-71
2021/10/23 08:03:56;;;;;;;32.55;23.55;;;16.20;64.90;;;;;;5043245;28;20044;-71
2021/10/23 08:06:22;;;;;;;36.05;24.77;;;16.30;64.00;;;;;;5051770;28;20082;-71
2021/10/23 08:08:48;;;;;;;35.53;23.88;;;16.30;64.50;;;;;;5040136;28;20387;-71
2021/10/23 08:11:14;;;;;;;33.03;24.00;;;16.30;64.70;;;;;;5033242;28;20064;-71
2021/10/23 08:13:39;;;;;;;33.08;23.40;;;16.40;64.20;;;;;;5041735;28;20065;-71
2021/10/23 08:16:05;;;;;;;35.60;24.08;;;16.50;63.20;;;;;;5053054;28;20028;-71
2021/10/23 08:18:32;;;;;;;33.22;24.30;;;16.60;62.60;;;;;;5041779;28;20399;-71
2021/10/23 08:21:00;;;;;;;41.97;29.65;;;16.60;62.90;;;;;;5033153;28;20025;-71
2021/10/23 08:23:26;;;;;;;41.58;29.73;;;16.60;62.80;;;;;;5031798;28;20026;-71
2021/10/23 08:25:53;;;;;;;45.90;32.35;;;16.80;63.30;;;;;;5032881;28;20148;-70
2021/10/23 08:28:23;;;;;;;41.28;28.27;;;16.90;62.80;;;;;;5038106;28;20371;-71
2021/10/23 08:30:49;;;;;;;40.10;26.85;;;16.90;62.30;;;;;;5051709;28;20117;-70
2021/10/23 08:33:15;;;;;;;37.65;28.10;;;17.00;62.10;;;;;;5045908;28;20022;-70
2021/10/23 08:35:41;;;;;;;33.90;25.45;;;17.00;61.80;;;;;;5031645;28;20107;-70
2021/10/23 08:38:06;;;;;;;37.55;26.63;;;17.10;61.60;;;;;;5035214;28;20017;-70
2021/10/23 08:40:32;;;;;;;37.10;26.95;;;17.20;61.60;;;;;;5052881;28;20025;-70
2021/10/23 08:42:58;;;;;;;40.10;27.60;;;17.30;60.40;;;;;;5048048;28;20025;-70
2021/10/23 08:45:24;;;;;;;35.45;25.85;;;17.20;60.70;;;;;;5032700;28;20464;-70
2021/10/23 08:47:50;;;;;;;40.35;27.02;;;17.20;60.40;;;;;;5032180;28;20031;-70
2021/10/23 08:50:21;;;;;;;38.83;27.73;;;17.30;60.60;;;;;;5033183;28;20083;-71
2021/10/23 08:52:49;;;;;;;38.55;27.17;;;17.10;60.30;;;;;;5041699;28;20025;-70
2021/10/23 08:55:15;;;;;;;36.83;26.50;;;17.20;61.10;;;;;;5045638;28;20072;-70
2021/10/23 08:57:41;;;;;;;39.28;25.77;;;17.30;60.50;;;;;;5049425;28;20516;-70
2021/10/23 09:00:09;;;;;;;36.10;26.55;;;17.40;60.60;;;;;;5052730;28;20040;-70
2021/10/23 09:02:34;;;;;;;37.80;27.98;;;17.40;59.90;;;;;;5052646;28;20032;-70
2021/10/23 09:05:00;;;;;;;34.42;24.65;;;17.40;59.70;;;;;;5032534;28;20086;-70
2021/10/23 09:07:27;;;;;;;36.20;24.90;;;17.50;59.80;;;;;;5055258;28;20033;-70
2021/10/23 09:10:02;;;;;;;34.35;26.73;;;17.40;58.10;;;;;;5037119;28;20030;-70
2021/10/23 09:12:32;;;;;;;36.45;26.55;;;17.50;59.80;;;;;;5036988;28;20030;-70
2021/10/23 09:15:01;;;;;;;36.60;27.15;;;17.50;59.40;;;;;;5052642;28;20060;-70
2021/10/23 09:17:27;;;;;;;37.00;29.10;;;17.50;60.10;;;;;;5048106;28;20029;-70
2021/10/23 09:19:55;;;;;;;37.45;27.85;;;17.60;60.00;;;;;;5034369;28;20025;-70
2021/10/23 09:22:32;;;;;;;37.85;27.55;;;17.80;59.80;;;;;;5035074;28;20495;-70
2021/10/23 09:25:22;;;;;;;38.15;28.23;;;17.70;59.50;;;;;;5052678;28;20028;-70
2021/10/23 09:27:59;;;;;;;35.67;26.45;;;17.80;58.40;;;;;;5055234;28;20025;-70
2021/10/23 09:30:31;;;;;;;35.65;27.40;;;17.80;59.20;;;;;;5016665;28;20117;-70
2021/10/23 09:33:04;;;;;;;36.22;26.88;;;17.90;59.70;;;;;;5017164;28;20022;-70
2021/10/23 09:35:30;;;;;;;36.35;28.13;;;17.90;58.60;;;;;;5054676;28;20498;-70
2021/10/23 09:37:58;;;;;;;40.10;28.30;;;17.80;59.00;;;;;;5052982;28;20383;-70
2021/10/23 09:40:26;;;;;;;37.85;27.70;;;17.70;59.30;;;;;;5036090;28;20036;-70
2021/10/23 09:43:11;;;;;;;37.15;26.98;;;17.60;59.30;;;;;;5034613;28;20033;-70
2021/10/23 09:45:55;;;;;;;35.75;26.58;;;17.60;58.20;;;;;;5016450;28;20113;-70
2021/10/23 09:48:30;;;;;;;39.07;28.73;;;17.70;59.10;;;;;;5022270;28;20105;-70
2021/10/23 09:51:09;;;;;;;39.55;27.88;;;17.80;59.20;;;;;;5054650;28;20087;-70
2021/10/23 09:53:35;;;;;;;40.85;30.45;;;18.00;58.70;;;;;;5037924;28;20079;-70
2021/10/23 09:56:06;;;;;;;38.00;29.08;;;18.00;58.70;;;;;;5054448;28;20028;-71
2021/10/23 09:58:32;;;;;;;44.70;31.42;;;18.10;57.60;;;;;;5051986;28;20044;-70
2021/10/23 10:00:58;;;;;;;43.25;33.13;;;18.00;58.80;;;;;;5035446;28;20352;-71
2021/10/23 10:03:29;;;;;;;41.80;33.35;;;18.10;58.00;;;;;;5032752;28;20056;-70
2021/10/23 10:05:59;;;;;;;42.40;30.65;;;18.20;57.50;;;;;;5033344;28;20028;-70
2021/10/23 10:08:29;;;;;;;41.38;30.60;;;18.20;57.50;;;;;;5034375;28;20036;-70
2021/10/23 10:10:56;;;;;;;39.28;28.25;;;18.10;58.30;;;;;;5034816;28;20356;-71
2021/10/23 10:13:24;;;;;;;41.38;30.98;;;18.20;57.10;;;;;;5047524;28;20029;-71
2021/10/23 10:15:55;;;;;;;41.85;30.67;;;18.20;57.90;;;;;;5035166;28;20046;-71
2021/10/23 10:18:22;;;;;;;41.00;29.92;;;18.40;58.10;;;;;;5033494;28;20076;-70
2021/10/23 10:20:53;;;;;;;40.35;29.92;;;18.40;58.00;;;;;;5035302;28;20164;-70
2021/10/23 10:23:29;;;;;;;39.15;30.58;;;18.50;57.30;;;;;;5034328;28;20037;-70
2021/10/23 10:26:24;;;;;;;40.42;31.70;;;18.40;57.30;;;;;;5055390;28;20025;-70
2021/10/23 10:31:55;;;;;;;38.83;30.07;;;18.40;57.40;;;;;;5035444;28;20060;-70
2021/10/23 10:34:59;;;;;;;39.45;30.88;;;18.40;56.80;;;;;;5043590;28;20772;-70
2021/10/23 10:42:50;;;;;;;;;;;18.40;57.60;;;;;;5034566;28;20072;-70
2021/10/23 10:45:43;;;;;;;40.42;29.83;;;18.40;56.90;;;;;;5032646;28;19913;-70
2021/10/23 10:48:22;;;;;;;43.00;29.83;;;18.60;57.60;;;;;;5034054;28;20560;-70
2021/10/23 10:51:11;;;;;;;41.97;31.40;;;18.90;56.30;;;;;;5034722;28;20044;-70
2021/10/23 10:53:41;;;;;;;42.95;33.30;;;19.00;57.00;;;;;;5034250;28;20059;-70
2021/10/23 10:56:12;;;;;;;41.17;31.35;;;19.20;56.00;;;;;;5054464;28;20028;-70
2021/10/23 10:58:47;;;;;;;40.58;30.67;;;19.20;55.80;;;;;;5048424;28;20118;-70
2021/10/23 11:01:14;;;;;;;40.50;32.28;;;19.20;55.80;;;;;;5033294;28;20395;-70
2021/10/23 11:03:44;;;;;;;37.58;31.65;;;19.20;55.70;;;;;;5035683;28;20044;-70
2021/10/23 11:06:31;;;;;;;40.85;30.48;;;19.10;55.70;;;;;;5053214;28;20159;-70
2021/10/23 11:09:12;;;;;;;40.20;30.75;;;19.10;54.30;;;;;;5046978;28;20439;-71
2021/10/23 11:11:43;;;;;;;39.35;31.00;;;19.10;56.10;;;;;;5038725;28;20031;-71
2021/10/23 11:14:21;;;;;;;42.13;30.95;;;18.90;55.60;;;;;;5052170;28;20037;-71
2021/10/23 11:16:56;;;;;;;41.38;29.33;;;18.80;53.80;;;;;;5052658;28;20438;-71
2021/10/23 11:19:28;;;;;;;40.65;30.52;;;18.80;55.90;;;;;;5052078;28;20131;-71
2021/10/23 11:22:15;;;;;;;45.25;33.92;;;19.00;54.70;;;;;;5052911;28;20065;-71
2021/10/23 11:24:43;;;;;;;39.75;30.65;;;19.10;53.70;;;;;;5040068;28;20044;-70
2021/10/23 11:27:30;;;;;;;41.53;31.67;;;19.00;55.30;;;;;;5034147;28;20030;-71
2021/10/23 11:30:06;;;;;;;48.05;35.78;;;19.40;54.60;;;;;;5045678;28;20052;-72
2021/10/23 11:32:37;;;;;;;44.42;32.28;;;19.30;53.30;;;;;;5053877;28;20035;-70
2021/10/23 11:35:03;;;;;;;47.63;34.20;;;19.40;54.70;;;;;;5036957;28;20045;-70
2021/10/23 11:37:30;;;;;;;40.63;31.90;;;19.50;54.10;;;;;;5033850;28;20049;-70
2021/10/23 11:40:08;;;;;;;45.70;34.58;;;19.60;55.10;;;;;;5045241;28;20037;-70
2021/10/23 11:42:34;;;;;;;44.35;33.53;;;;;;;;;;5052203;28;20421;-71
2021/10/23 11:45:05;;;;;;;47.10;35.63;;;19.80;62.60;;;;;;5051242;28;20029;-70
2021/10/23 11:47:31;;;;;;;52.92;37.78;;;19.70;55.10;;;;;;5053545;28;20025;-70
2021/10/23 11:50:01;;;;;;;50.00;38.92;;;19.60;54.70;;;;;;5044534;28;20372;-70
2021/10/23 11:52:27;;;;;;;50.75;37.17;;;19.60;54.50;;;;;;5053811;28;20108;-70
2021/10/23 11:54:55;;;;;;;52.53;36.80;;;19.70;54.40;;;;;;5051534;28;20509;-70
2021/10/23 11:57:35;;;;;;;50.30;37.78;;;19.60;54.60;;;;;;5053387;28;20104;-70
2021/10/23 12:00:02;;;;;;;50.30;38.22;;;19.70;54.40;;;;;;5047686;28;20026;-70
2021/10/23 12:02:50;;;;;;;51.10;39.05;;;19.60;55.20;;;;;;5033619;28;20144;-70
2021/10/23 12:05:43;;;;;;;54.17;41.35;;;19.70;55.70;;;;;;5036820;28;20353;-70
2021/10/23 12:08:18;;;;;;;55.63;41.78;;;19.60;55.30;;;;;;5051950;28;20074;-70
2021/10/23 12:11:04;;;;;;;54.42;41.72;;;19.70;56.00;;;;;;5042787;28;20033;-70
2021/10/23 12:13:52;;;;;;;62.35;43.08;;;19.80;56.50;;;;;;5028610;28;20348;-70
2021/10/23 12:16:42;;;;;;;58.58;42.63;;;19.90;55.80;;;;;;5024920;28;20069;-69
2021/10/23 12:19:20;;;;;;;57.25;42.72;;;19.90;55.90;;;;;;5053175;28;20040;-70
2021/10/23 12:21:50;;;;;;;58.35;42.65;;;19.80;55.80;;;;;;5033557;28;20507;-70
2021/10/23 12:24:30;;;;;;;56.20;41.20;;;19.80;57.10;;;;;;5053209;28;20058;-71
2021/10/23 12:27:06;;;;;;;53.97;42.38;;;20.00;57.70;;;;;;5033094;28;20467;-71
2021/10/23 12:29:46;;;;;;;58.92;44.85;;;20.10;64.10;;;;;;5033071;28;20091;-71
2021/10/23 12:32:18;;;;;;;65.65;46.50;;;20.20;56.50;;;;;;5035926;28;20047;-71
2021/10/23 12:34:50;;;;;;;57.65;44.50;;;20.20;56.50;;;;;;5031513;28;20503;-71
2021/10/23 12:37:34;;;;;;;66.13;47.55;;;20.10;52.20;;;;;;5043255;28;20117;-71
2021/10/23 12:40:27;;;;;;;63.92;46.08;;;20.30;52.30;;;;;;5032052;28;20075;-70
2021/10/23 12:42:56;;;;;;;63.75;47.53;;;20.50;51.20;;;;;;5041404;28;20111;-71